createdAt,value
2023-04-28T00:00:51.156Z,7.63
2023-04-28T00:03:18.034Z,7.95
2023-04-28T00:05:44.785Z,8.13
2023-04-28T00:08:11.324Z,7.57
2023-04-28T00:10:37.796Z,7.82
2023-04-28T00:13:04.278Z,7.90
2023-04-28T00:15:30.849Z,8.63
2023-04-28T00:17:57.306Z,8.23
2023-04-28T00:20:23.858Z,7.88
2023-04-28T00:22:50.631Z,8.18
2023-04-28T00:25:17.240Z,8.23
2023-04-28T00:27:43.723Z,7.13
2023-04-28T00:30:10.900Z,7.93
2023-04-28T00:32:37.476Z,7.80
2023-04-28T00:35:04.179Z,8.10
2023-04-28T00:37:30.804Z,7.85
2023-04-28T00:39:57.495Z,8.48
2023-04-28T00:42:24.304Z,7.55
2023-04-28T00:44:50.808Z,8.20
2023-04-28T00:47:18.269Z,7.40
2023-04-28T00:49:45.534Z,8.10
2023-04-28T00:52:12.001Z,7.65
2023-04-28T00:54:38.681Z,7.60
2023-04-28T00:57:05.221Z,8.00
2023-04-28T00:59:31.981Z,8.35
2023-04-28T01:02:00.192Z,8.63
2023-04-28T01:04:29.136Z,8.52
2023-04-28T01:06:56.912Z,7.50
2023-04-28T01:09:23.358Z,8.32
2023-04-28T01:11:49.783Z,8.23
2023-04-28T01:14:16.382Z,9.70
2023-04-28T01:16:43.432Z,8.70
2023-04-28T01:19:20.211Z,8.60
2023-04-28T01:21:46.637Z,8.45
2023-04-28T01:24:13.355Z,8.88
2023-04-28T01:26:40.065Z,9.30
2023-04-28T01:29:06.648Z,9.93
2023-04-28T01:31:33.150Z,10.02
2023-04-28T01:33:59.647Z,8.70
2023-04-28T01:36:27.419Z,8.85
2023-04-28T01:38:54.484Z,9.15
2023-04-28T01:41:21.206Z,8.63
2023-04-28T01:43:47.714Z,9.60
2023-04-28T01:46:14.199Z,9.65
2023-04-28T01:48:40.723Z,8.80
2023-04-28T01:51:07.249Z,9.30
2023-04-28T01:53:34.065Z,8.15
2023-04-28T01:56:19.251Z,10.63
2023-04-28T01:58:46.082Z,9.13
2023-04-28T02:01:12.819Z,9.65
2023-04-28T02:03:39.435Z,9.27
2023-04-28T02:06:06.046Z,9.95
2023-04-28T02:08:32.594Z,10.13
2023-04-28T02:10:59.038Z,10.15
2023-04-28T02:13:25.464Z,9.57
2023-04-28T02:15:51.962Z,10.38
2023-04-28T02:18:18.424Z,9.43
2023-04-28T02:20:44.868Z,10.95
2023-04-28T02:23:11.319Z,10.00
2023-04-28T02:25:37.812Z,10.25
2023-04-28T02:28:04.382Z,10.07
2023-04-28T02:30:30.963Z,10.73
2023-04-28T02:32:57.480Z,11.38
2023-04-28T02:35:23.980Z,10.25
2023-04-28T02:37:50.779Z,10.65
2023-04-28T02:40:17.392Z,11.23
2023-04-28T02:42:43.845Z,10.98
2023-04-28T02:45:10.822Z,9.95
2023-04-28T02:47:37.293Z,10.90
2023-04-28T02:50:04.335Z,11.88
2023-04-28T02:52:30.932Z,11.60
2023-04-28T02:54:57.598Z,10.32
2023-04-28T02:57:24.371Z,10.45
2023-04-28T02:59:50.932Z,11.65
2023-04-28T03:02:17.518Z,10.52
2023-04-28T03:04:44.112Z,11.77
2023-04-28T03:07:10.783Z,12.32
2023-04-28T03:09:37.212Z,11.05
2023-04-28T03:12:03.887Z,11.10
2023-04-28T03:14:30.768Z,12.30
2023-04-28T03:16:57.843Z,11.90
2023-04-28T03:19:24.344Z,11.75
2023-04-28T03:21:50.842Z,11.75
2023-04-28T03:24:17.557Z,13.68
2023-04-28T03:26:44.469Z,12.23
2023-04-28T03:29:10.960Z,12.02
2023-04-28T03:31:37.429Z,12.77
2023-04-28T03:34:04.466Z,12.57
2023-04-28T03:36:32.074Z,12.95
2023-04-28T03:38:58.580Z,12.43
2023-04-28T03:41:25.043Z,13.00
2023-04-28T03:43:52.002Z,13.50
2023-04-28T03:46:18.557Z,13.48
2023-04-28T03:48:46.137Z,12.38
2023-04-28T03:51:12.670Z,13.23
2023-04-28T03:53:39.157Z,13.55
2023-04-28T03:56:06.194Z,13.98
2023-04-28T03:58:32.693Z,14.57
2023-04-28T04:01:00.924Z,14.25
2023-04-28T04:03:27.689Z,14.35
2023-04-28T04:05:55.666Z,15.88
2023-04-28T04:08:22.260Z,13.52
2023-04-28T04:10:48.715Z,14.43
2023-04-28T04:13:15.251Z,13.77
2023-04-28T04:15:41.743Z,13.95
2023-04-28T04:18:08.362Z,14.20
2023-04-28T04:20:34.869Z,16.10
2023-04-28T04:23:02.017Z,15.20
2023-04-28T04:25:28.593Z,14.52
2023-04-28T04:27:55.121Z,14.57
2023-04-28T04:30:21.715Z,15.05
2023-04-28T04:32:48.494Z,14.90
2023-04-28T04:35:15.052Z,14.38
2023-04-28T04:37:41.526Z,15.13
2023-04-28T04:40:08.864Z,14.88
2023-04-28T04:42:35.554Z,16.10
2023-04-28T04:45:02.074Z,15.30
2023-04-28T04:47:28.696Z,16.73
2023-04-28T04:49:55.247Z,17.13
2023-04-28T04:52:21.724Z,17.75
2023-04-28T04:54:48.251Z,18.35
2023-04-28T04:57:14.753Z,16.52
2023-04-28T04:59:41.467Z,17.75
2023-04-28T05:02:08.161Z,17.60
2023-04-28T05:04:34.883Z,16.17
2023-04-28T05:07:01.399Z,17.40
2023-04-28T05:09:29.044Z,18.52
2023-04-28T05:11:56.026Z,16.75
2023-04-28T05:14:22.453Z,14.88
2023-04-28T05:16:49.422Z,15.48
2023-04-28T05:19:16.327Z,15.52
2023-04-28T05:21:42.892Z,16.42
2023-04-28T05:24:09.316Z,16.38
2023-04-28T05:26:36.718Z,16.58
2023-04-28T05:29:03.184Z,16.63
2023-04-28T05:31:29.692Z,17.55
2023-04-28T05:33:56.228Z,18.10
2023-04-28T05:36:22.690Z,18.55
2023-04-28T05:38:49.245Z,17.58
2023-04-28T05:41:15.905Z,17.13
2023-04-28T05:43:42.653Z,16.63
2023-04-28T05:46:18.146Z,18.08
2023-04-28T05:48:48.710Z,17.60
2023-04-28T05:51:15.171Z,16.15
2023-04-28T05:53:41.871Z,18.63
2023-04-28T05:56:08.421Z,18.58
2023-04-28T05:58:35.074Z,17.48
2023-04-28T06:01:01.571Z,17.65
2023-04-28T06:03:28.331Z,19.08
2023-04-28T06:05:55.047Z,16.50
2023-04-28T06:08:21.547Z,18.40
2023-04-28T06:10:48.017Z,18.02
2023-04-28T06:13:14.818Z,19.13
2023-04-28T06:15:41.521Z,19.85
2023-04-28T06:18:09.709Z,19.10
2023-04-28T06:20:36.355Z,17.88
2023-04-28T06:23:03.389Z,18.88
2023-04-28T06:25:29.920Z,19.45
2023-04-28T06:27:56.544Z,18.30
2023-04-28T06:30:24.120Z,19.45
2023-04-28T06:32:50.828Z,19.23
2023-04-28T06:35:17.338Z,17.60
2023-04-28T06:37:43.869Z,18.40
2023-04-28T06:40:11.240Z,19.00
2023-04-28T06:42:37.728Z,17.02
2023-04-28T06:45:04.395Z,19.45
2023-04-28T06:47:30.948Z,19.55
2023-04-28T06:49:57.526Z,18.40
2023-04-28T06:52:33.076Z,18.38
2023-04-28T06:55:07.602Z,18.00
2023-04-28T06:57:34.174Z,16.70
2023-04-28T07:00:00.958Z,18.27
2023-04-28T07:02:27.498Z,18.33
2023-04-28T07:04:54.184Z,17.95
2023-04-28T07:07:20.749Z,18.23
2023-04-28T07:09:47.265Z,17.80
2023-04-28T07:12:13.771Z,19.60
2023-04-28T07:14:40.465Z,17.02
2023-04-28T07:17:06.942Z,15.80
2023-04-28T07:19:33.415Z,16.15
2023-04-28T07:21:59.869Z,15.90
2023-04-28T07:24:27.298Z,17.73
2023-04-28T07:26:53.886Z,15.00
2023-04-28T07:29:20.463Z,14.55
2023-04-28T07:31:46.973Z,13.75
2023-04-28T07:34:13.569Z,15.15
2023-04-28T07:36:40.439Z,13.65
2023-04-28T07:39:07.108Z,14.02
2023-04-28T07:41:40.444Z,13.40
2023-04-28T07:44:10.541Z,13.15
2023-04-28T07:46:38.030Z,14.70
2023-04-28T07:49:04.878Z,13.93
2023-04-28T07:51:31.412Z,11.90
2023-04-28T07:53:58.388Z,13.55
2023-04-28T07:56:25.798Z,13.02
2023-04-28T07:58:52.672Z,12.32
2023-04-28T08:01:19.201Z,11.55
2023-04-28T08:03:46.310Z,11.20
2023-04-28T08:06:13.317Z,12.35
2023-04-28T08:08:40.459Z,12.07
2023-04-28T08:11:07.737Z,11.73
2023-04-28T08:13:34.648Z,11.32
2023-04-28T08:16:01.253Z,8.73
2023-04-28T08:18:28.896Z,9.25
2023-04-28T08:20:55.774Z,11.55
2023-04-28T08:23:22.339Z,10.57
2023-04-28T08:25:50.245Z,9.27
2023-04-28T08:28:16.893Z,8.32
2023-04-28T08:30:43.365Z,10.75
2023-04-28T08:33:09.873Z,8.85
2023-04-28T08:35:36.366Z,10.02
2023-04-28T08:38:02.838Z,8.18
2023-04-28T08:40:31.409Z,8.88
2023-04-28T08:42:58.502Z,9.38
2023-04-28T08:45:27.859Z,8.05
2023-04-28T08:47:56.877Z,7.07
2023-04-28T08:50:25.880Z,9.00
2023-04-28T08:52:52.607Z,6.07
2023-04-28T08:55:19.591Z,3.50
2023-04-28T08:57:49.863Z,7.68
2023-04-28T09:00:17.728Z,7.72
2023-04-28T09:02:44.430Z,4.20
2023-04-28T09:05:12.452Z,2.97
2023-04-28T09:07:39.606Z,4.18
2023-04-28T09:10:23.871Z,3.08
2023-04-28T09:12:55.213Z,7.78
2023-04-28T09:15:31.842Z,7.82
2023-04-28T09:18:01.162Z,5.45
2023-04-28T09:20:30.427Z,4.35
2023-04-28T09:23:13.613Z,7.05
2023-04-28T09:25:40.151Z,7.55
2023-04-28T09:28:22.317Z,3.53
2023-04-28T09:30:49.089Z,4.30
2023-04-28T09:33:16.279Z,6.60
2023-04-28T09:35:45.783Z,7.03
2023-04-28T09:38:12.358Z,5.63
2023-04-28T09:40:51.858Z,7.13
2023-04-28T09:43:26.728Z,4.53
2023-04-28T09:45:54.197Z,3.17
2023-04-28T09:48:47.177Z,5.85
2023-04-28T09:51:21.161Z,6.38
2023-04-28T09:53:47.703Z,4.80
2023-04-28T09:56:14.488Z,7.75
2023-04-28T09:58:44.025Z,5.00
2023-04-28T10:01:13.386Z,7.35
2023-04-28T10:03:43.218Z,7.78
2023-04-28T10:06:10.128Z,5.43
2023-04-28T10:08:36.649Z,7.90
2023-04-28T10:11:04.491Z,8.77
2023-04-28T10:13:31.198Z,8.07
2023-04-28T10:15:58.606Z,5.07
2023-04-28T10:18:25.777Z,6.32
2023-04-28T10:20:58.414Z,7.72
2023-04-28T10:23:47.198Z,7.80
2023-04-28T10:26:15.391Z,7.82
2023-04-28T10:28:49.791Z,8.10
2023-04-28T10:31:18.743Z,7.73
2023-04-28T10:33:45.316Z,7.25
2023-04-28T10:36:11.973Z,6.97
2023-04-28T10:39:09.663Z,7.43
2023-04-28T10:41:36.322Z,2.78
2023-04-28T10:44:28.731Z,6.07
2023-04-28T10:47:04.851Z,3.10
2023-04-28T10:49:57.670Z,4.07
2023-04-28T10:52:33.550Z,4.63
2023-04-28T10:55:37.326Z,5.43
2023-04-28T10:58:16.201Z,8.35
2023-04-28T11:00:47.901Z,7.30
2023-04-28T11:03:46.680Z,8.90
2023-04-28T11:06:27.197Z,8.20
2023-04-28T11:08:55.656Z,3.53
2023-04-28T11:11:22.866Z,2.95
2023-04-28T11:13:50.112Z,6.68
2023-04-28T11:16:19.600Z,2.53
2023-04-28T11:18:55.956Z,10.85
2023-04-28T11:21:24.259Z,11.05
2023-04-28T11:23:51.071Z,12.90
2023-04-28T11:26:19.332Z,4.80
2023-04-28T11:28:52.959Z,10.52
2023-04-28T11:31:24.242Z,6.00
2023-04-28T11:34:05.221Z,4.32
2023-04-28T11:36:35.426Z,4.80
2023-04-28T11:39:07.784Z,7.38
2023-04-28T11:41:39.260Z,9.30
2023-04-28T11:44:16.380Z,11.52
2023-04-28T11:46:50.683Z,9.75
2023-04-28T11:49:18.866Z,4.00
2023-04-28T11:51:47.009Z,9.02
2023-04-28T11:54:14.927Z,10.82
2023-04-28T11:56:42.779Z,7.32
2023-04-28T11:59:11.311Z,8.95
2023-04-28T12:02:02.917Z,12.95
2023-04-28T12:04:43.530Z,9.10
2023-04-28T12:07:14.111Z,7.95
2023-04-28T12:09:44.633Z,13.38
2023-04-28T12:12:18.528Z,11.55
2023-04-28T12:15:07.389Z,7.28
2023-04-28T12:17:36.363Z,15.73
2023-04-28T12:20:06.494Z,6.70
2023-04-28T12:22:47.884Z,11.88
2023-04-28T12:25:17.146Z,17.73
2023-04-28T12:28:07.436Z,21.13
2023-04-28T12:30:38.851Z,18.02
2023-04-28T12:33:05.468Z,11.40
2023-04-28T12:35:33.191Z,19.42
2023-04-28T12:37:59.879Z,14.95
2023-04-28T12:40:26.990Z,19.75
2023-04-28T12:42:53.877Z,18.35
2023-04-28T12:45:20.388Z,11.40
2023-04-28T12:47:48.091Z,20.42
2023-04-28T12:50:14.645Z,23.35
2023-04-28T12:52:41.205Z,4.35
2023-04-28T12:55:08.306Z,21.80
2023-04-28T12:57:38.931Z,9.20
2023-04-28T13:00:07.350Z,21.90
2023-04-28T13:02:34.105Z,22.52
2023-04-28T13:05:01.971Z,23.75
2023-04-28T13:07:28.727Z,22.50
2023-04-28T13:09:55.977Z,20.05
2023-04-28T13:12:23.003Z,19.23
2023-04-28T13:14:49.826Z,22.55
2023-04-28T13:17:16.485Z,12.32
2023-04-28T13:19:43.822Z,19.55
2023-04-28T13:22:10.663Z,17.73
2023-04-28T13:24:37.155Z,22.00
2023-04-28T13:27:04.180Z,20.65
2023-04-28T13:29:30.780Z,17.60
2023-04-28T13:31:57.350Z,19.95
2023-04-28T13:34:23.963Z,10.75
2023-04-28T13:36:53.954Z,16.73
2023-04-28T13:39:21.992Z,11.57
2023-04-28T13:41:49.411Z,14.93
2023-04-28T13:44:16.770Z,14.93
2023-04-28T13:46:43.477Z,13.45
2023-04-28T13:49:10.570Z,8.05
2023-04-28T13:51:37.321Z,9.90
2023-04-28T13:54:04.706Z,8.27
2023-04-28T13:56:32.035Z,9.68
2023-04-28T13:58:58.866Z,8.15
2023-04-28T14:01:25.508Z,8.27
2023-04-28T14:03:52.311Z,6.10
2023-04-28T14:06:19.170Z,8.60
2023-04-28T14:08:45.693Z,7.55
2023-04-28T14:11:12.332Z,7.60
2023-04-28T14:13:38.801Z,7.28
2023-04-28T14:16:05.744Z,7.95
2023-04-28T14:18:33.857Z,7.88
2023-04-28T14:21:02.059Z,9.32
2023-04-28T14:23:28.782Z,4.25
2023-04-28T14:25:56.876Z,8.85
2023-04-28T14:28:23.647Z,8.90
2023-04-28T14:30:50.189Z,7.80
2023-04-28T14:33:16.767Z,10.05
2023-04-28T14:35:43.465Z,10.85
2023-04-28T14:38:10.052Z,10.88
2023-04-28T14:40:36.572Z,9.27
2023-04-28T14:43:03.043Z,8.43
2023-04-28T14:45:29.691Z,8.32
2023-04-28T14:47:56.307Z,7.35
2023-04-28T14:50:22.812Z,8.55
2023-04-28T14:52:49.630Z,8.88
2023-04-28T14:55:16.222Z,9.40
2023-04-28T14:57:42.738Z,7.05
2023-04-28T15:00:09.771Z,6.28
2023-04-28T15:02:36.621Z,8.90
2023-04-28T15:05:03.537Z,8.75
2023-04-28T15:07:31.714Z,7.82
2023-04-28T15:09:59.537Z,7.57
2023-04-28T15:12:26.310Z,7.07
2023-04-28T15:14:53.782Z,7.40
2023-04-28T15:17:23.462Z,7.82
2023-04-28T15:19:49.904Z,7.18
2023-04-28T15:22:16.950Z,7.85
2023-04-28T15:24:43.436Z,7.80
2023-04-28T15:27:10.009Z,7.35
2023-04-28T15:29:36.501Z,6.95
2023-04-28T15:32:03.106Z,7.85
2023-04-28T15:34:29.589Z,6.25
2023-04-28T15:36:56.685Z,7.85
2023-04-28T15:39:25.086Z,3.42
2023-04-28T15:41:52.916Z,6.90
2023-04-28T15:44:19.800Z,6.70
2023-04-28T15:46:46.357Z,8.15
2023-04-28T15:49:16.085Z,7.35
2023-04-28T15:51:42.873Z,8.15
2023-04-28T15:54:09.328Z,6.40
2023-04-28T15:56:35.929Z,6.45
2023-04-28T15:59:02.551Z,6.70
2023-04-28T16:01:29.570Z,3.08
2023-04-28T16:03:56.344Z,4.38
2023-04-28T16:06:23.500Z,2.35
2023-04-28T16:08:49.961Z,5.82
2023-04-28T16:11:19.422Z,6.20
2023-04-28T16:13:45.900Z,4.32
2023-04-28T16:16:12.665Z,6.32
2023-04-28T16:18:39.413Z,5.20
2023-04-28T16:21:06.415Z,4.93
2023-04-28T16:23:33.068Z,4.95
2023-04-28T16:25:59.559Z,4.55
2023-04-28T16:28:27.020Z,3.63
2023-04-28T16:30:53.609Z,5.38
2023-04-28T16:33:20.400Z,4.43
2023-04-28T16:35:54.254Z,4.78
2023-04-28T16:38:21.439Z,4.45
2023-04-28T16:40:47.959Z,4.68
2023-04-28T16:43:14.583Z,3.28
2023-04-28T16:45:41.315Z,4.07
2023-04-28T16:48:08.008Z,5.35
2023-04-28T16:50:34.544Z,5.30
2023-04-28T16:53:01.232Z,4.55
2023-04-28T16:55:27.818Z,3.20
2023-04-28T16:57:54.357Z,5.20
2023-04-28T17:00:21.311Z,4.95
2023-04-28T17:02:47.894Z,5.25
2023-04-28T17:05:14.554Z,3.85
2023-04-28T17:07:41.208Z,4.13
2023-04-28T17:10:08.308Z,3.97
2023-04-28T17:12:34.841Z,3.63
2023-04-28T17:15:01.449Z,5.10
2023-04-28T17:17:29.174Z,4.03
2023-04-28T17:19:56.861Z,5.85
2023-04-28T17:22:23.346Z,3.78
2023-04-28T17:24:49.799Z,2.78
2023-04-28T17:27:16.291Z,2.83
2023-04-28T17:29:43.503Z,3.90
2023-04-28T17:32:11.022Z,5.05
2023-04-28T17:34:37.699Z,5.50
2023-04-28T17:37:04.194Z,3.78
2023-04-28T17:39:30.724Z,4.55
2023-04-28T17:41:58.535Z,3.35
2023-04-28T17:44:25.439Z,3.92
2023-04-28T17:46:51.972Z,4.10
2023-04-28T17:49:18.747Z,4.95
2023-04-28T17:51:45.223Z,4.80
2023-04-28T17:54:11.790Z,3.53
2023-04-28T17:56:39.243Z,3.90
2023-04-28T17:59:06.334Z,4.78
2023-04-28T18:01:36.775Z,4.68
2023-04-28T18:04:03.337Z,5.65
2023-04-28T18:06:29.874Z,5.57
2023-04-28T18:08:56.377Z,5.75
2023-04-28T18:11:23.373Z,5.80
2023-04-28T18:13:49.885Z,5.63
2023-04-28T18:16:16.350Z,5.57
2023-04-28T18:18:42.853Z,6.13
2023-04-28T18:21:09.592Z,4.80
2023-04-28T18:23:38.753Z,5.72
2023-04-28T18:26:05.343Z,5.88
2023-04-28T18:28:33.822Z,6.97
2023-04-28T18:31:05.429Z,6.93
2023-04-28T18:33:32.706Z,6.45
2023-04-28T18:36:00.840Z,6.70
2023-04-28T18:38:27.520Z,6.82
2023-04-28T18:40:53.983Z,5.95
2023-04-28T18:43:21.320Z,5.22
2023-04-28T18:45:49.016Z,6.82
2023-04-28T18:48:15.596Z,6.80
2023-04-28T18:50:42.589Z,2.00
2023-04-28T18:53:10.338Z,2.63
2023-04-28T18:55:37.040Z,4.28
2023-04-28T18:58:04.032Z,3.08
2023-04-28T19:00:31.046Z,8.77
2023-04-28T19:02:57.883Z,3.40
2023-04-28T19:05:24.820Z,2.97
2023-04-28T19:07:51.483Z,12.48
2023-04-28T19:10:18.047Z,2.97
2023-04-28T19:12:44.532Z,6.28
2023-04-28T19:15:11.044Z,11.25
2023-04-28T19:17:37.551Z,6.72
2023-04-28T19:20:04.384Z,12.18
2023-04-28T19:22:35.020Z,2.58
2023-04-28T19:25:02.450Z,10.43
2023-04-28T19:27:31.276Z,11.73
2023-04-28T19:29:59.067Z,13.05
2023-04-28T19:32:25.659Z,12.57
2023-04-28T19:34:52.841Z,11.43
2023-04-28T19:37:20.077Z,8.18
2023-04-28T19:39:47.332Z,14.32
2023-04-28T19:42:13.866Z,14.45
2023-04-28T19:44:40.415Z,13.15
2023-04-28T19:47:07.458Z,11.27
2023-04-28T19:49:35.127Z,3.55
2023-04-28T19:52:01.691Z,8.27
2023-04-28T19:54:28.293Z,12.35
2023-04-28T19:56:55.524Z,14.13
2023-04-28T19:59:22.499Z,13.60
2023-04-28T20:01:49.976Z,8.32
2023-04-28T20:04:16.735Z,13.77
2023-04-28T20:06:43.454Z,13.45
2023-04-28T20:09:10.266Z,5.00
2023-04-28T20:11:37.299Z,9.80
2023-04-28T20:14:03.811Z,11.55
2023-04-28T20:16:30.375Z,15.07
2023-04-28T20:18:56.850Z,13.27
2023-04-28T20:21:23.341Z,13.88
2023-04-28T20:23:50.639Z,14.57
2023-04-28T20:26:17.123Z,4.07
2023-04-28T20:28:46.470Z,10.10
2023-04-28T20:31:13.704Z,15.48
2023-04-28T20:33:40.295Z,12.18
2023-04-28T20:36:06.845Z,16.55
2023-04-28T20:38:33.428Z,12.63
2023-04-28T20:40:59.961Z,6.82
2023-04-28T20:43:26.671Z,15.73
2023-04-28T20:45:53.129Z,13.88
2023-04-28T20:48:19.647Z,17.38
2023-04-28T20:50:48.522Z,16.60
2023-04-28T20:53:14.987Z,16.38
2023-04-28T20:55:41.504Z,14.27
2023-04-28T20:58:08.069Z,13.43
2023-04-28T21:00:38.160Z,6.05
2023-04-28T21:03:05.134Z,13.27
2023-04-28T21:05:31.841Z,15.98
2023-04-28T21:07:58.412Z,14.90
2023-04-28T21:10:24.856Z,13.55
2023-04-28T21:12:51.323Z,15.25
2023-04-28T21:15:17.834Z,13.90
2023-04-28T21:17:44.373Z,11.55
2023-04-28T21:20:11.751Z,12.40
2023-04-28T21:22:38.287Z,11.80
2023-04-28T21:25:05.790Z,12.10
2023-04-28T21:27:32.614Z,9.05
2023-04-28T21:29:59.186Z,11.63
2023-04-28T21:32:26.582Z,6.57
2023-04-28T21:34:53.176Z,5.90
2023-04-28T21:37:19.687Z,9.63
2023-04-28T21:39:46.156Z,10.57
2023-04-28T21:42:12.935Z,12.77
2023-04-28T21:44:39.416Z,6.85
2023-04-28T21:47:06.733Z,11.82
2023-04-28T21:49:33.219Z,10.32
2023-04-28T21:51:59.745Z,11.23
2023-04-28T21:54:26.220Z,8.55
2023-04-28T21:56:52.735Z,11.00
2023-04-28T21:59:19.206Z,10.52
2023-04-28T22:01:45.975Z,12.48
2023-04-28T22:04:12.886Z,12.50
2023-04-28T22:06:39.640Z,10.48
2023-04-28T22:09:07.064Z,12.85
2023-04-28T22:11:33.866Z,9.73
2023-04-28T22:14:00.852Z,10.10
2023-04-28T22:16:28.015Z,11.80
2023-04-28T22:18:54.503Z,12.05
2023-04-28T22:21:21.191Z,11.95
2023-04-28T22:23:47.671Z,11.27
2023-04-28T22:26:14.905Z,14.75
2023-04-28T22:28:41.733Z,15.57
2023-04-28T22:31:08.341Z,13.93
2023-04-28T22:33:35.361Z,15.30
2023-04-28T22:36:02.249Z,15.90
2023-04-28T22:38:28.710Z,14.77
2023-04-28T22:40:55.276Z,14.60
2023-04-28T22:43:21.775Z,15.45
2023-04-28T22:45:48.236Z,12.68
2023-04-28T22:48:14.686Z,12.65
2023-04-28T22:50:41.145Z,14.50
2023-04-28T22:53:08.122Z,15.55
2023-04-28T22:55:34.577Z,15.40
2023-04-28T22:58:01.140Z,13.63
2023-04-28T23:00:27.690Z,15.00
2023-04-28T23:02:54.249Z,16.02
2023-04-28T23:05:20.912Z,16.88
2023-04-28T23:07:47.372Z,15.77
2023-04-28T23:10:14.669Z,14.52
2023-04-28T23:12:41.380Z,16.75
2023-04-28T23:15:08.183Z,17.50
2023-04-28T23:17:34.744Z,16.50
2023-04-28T23:20:01.216Z,15.85
2023-04-28T23:22:27.740Z,17.60
2023-04-28T23:24:54.220Z,17.60
2023-04-28T23:27:20.744Z,18.52
2023-04-28T23:29:47.222Z,17.58
2023-04-28T23:32:13.718Z,17.98
2023-04-28T23:34:42.161Z,19.33
2023-04-28T23:37:08.829Z,19.35
2023-04-28T23:39:35.354Z,17.92
2023-04-28T23:42:02.335Z,19.65
2023-04-28T23:44:28.809Z,19.90
2023-04-28T23:46:56.360Z,19.67
2023-04-28T23:49:23.767Z,19.17
2023-04-28T23:51:50.268Z,21.42
2023-04-28T23:54:16.932Z,19.67
2023-04-28T23:56:43.388Z,21.58
2023-04-28T23:59:09.837Z,21.15
